sensor_id;sensor_type;location;lat;lon;timestamp;temperature;humidity
10566;DHT22;5331;48.148;16.326;2023-11-21T00:08:02;8.50;1.00
10566;DHT22;5331;48.148;16.326;2023-11-21T00:10:28;8.50;1.00
10566;DHT22;5331;48.148;16.326;2023-11-21T00:12:54;8.50;1.00
10566;DHT22;5331;48.148;16.326;2023-11-21T00:15:21;8.50;1.00
10566;DHT22;5331;48.148;16.326;2023-11-21T00:17:47;8.40;1.00
10566;DHT22;5331;48.148;16.326;2023-11-21T00:20:13;8.50;1.00
10566;DHT22;5331;48.148;16.326;2023-11-21T00:22:39;8.40;1.00
10566;DHT22;5331;48.148;16.326;2023-11-21T00:40:32;8.30;1.00
10566;DHT22;5331;48.148;16.326;2023-11-21T00:42:58;8.20;1.00
10566;DHT22;5331;48.148;16.326;2023-11-21T00:45:24;8.30;1.00
10566;DHT22;5331;48.148;16.326;2023-11-21T00:47:51;8.30;1.00
10566;DHT22;5331;48.148;16.326;2023-11-21T00:50:17;8.30;1.00
10566;DHT22;5331;48.148;16.326;2023-11-21T00:52:43;8.40;1.00
10566;DHT22;5331;48.148;16.326;2023-11-21T00:55:09;8.30;1.00
10566;DHT22;5331;48.148;16.326;2023-11-21T01:11:02;8.20;1.00
10566;DHT22;5331;48.148;16.326;2023-11-21T01:13:28;8.10;1.00
10566;DHT22;5331;48.148;16.326;2023-11-21T01:15:55;8.10;1.00
10566;DHT22;5331;48.148;16.326;2023-11-21T01:18:21;8.00;1.00
10566;DHT22;5331;48.148;16.326;2023-11-21T01:20:47;7.90;1.00
10566;DHT22;5331;48.148;16.326;2023-11-21T01:23:13;7.80;1.00
10566;DHT22;5331;48.148;16.326;2023-11-21T01:25:40;7.80;1.00
10566;DHT22;5331;48.148;16.326;2023-11-21T01:45:57;7.60;1.00
10566;DHT22;5331;48.148;16.326;2023-11-21T01:48:24;7.60;1.00
10566;DHT22;5331;48.148;16.326;2023-11-21T01:50:51;7.60;1.00
10566;DHT22;5331;48.148;16.326;2023-11-21T01:53:17;7.60;1.00
10566;DHT22;5331;48.148;16.326;2023-11-21T01:55:45;7.60;1.00
10566;DHT22;5331;48.148;16.326;2023-11-21T01:58:12;7.50;1.00
10566;DHT22;5331;48.148;16.326;2023-11-21T02:00:38;7.50;1.00
10566;DHT22;5331;48.148;16.326;2023-11-21T02:20:56;7.20;1.00
10566;DHT22;5331;48.148;16.326;2023-11-21T02:23:23;7.10;1.00
10566;DHT22;5331;48.148;16.326;2023-11-21T02:25:54;7.00;1.00
10566;DHT22;5331;48.148;16.326;2023-11-21T02:28:20;6.90;1.00
10566;DHT22;5331;48.148;16.326;2023-11-21T02:30:51;6.90;1.00
10566;DHT22;5331;48.148;16.326;2023-11-21T02:33:21;6.90;1.00
10566;DHT22;5331;48.148;16.326;2023-11-21T02:35:47;6.80;1.00
10566;DHT22;5331;48.148;16.326;2023-11-21T02:53:40;7.00;1.00
10566;DHT22;5331;48.148;16.326;2023-11-21T02:56:07;7.00;1.00
10566;DHT22;5331;48.148;16.326;2023-11-21T02:58:33;7.00;1.00
10566;DHT22;5331;48.148;16.326;2023-11-21T03:00:59;7.00;1.00
10566;DHT22;5331;48.148;16.326;2023-11-21T03:03:25;7.00;1.00
10566;DHT22;5331;48.148;16.326;2023-11-21T03:05:51;7.00;1.00
10566;DHT22;5331;48.148;16.326;2023-11-21T03:08:17;7.00;1.00
10566;DHT22;5331;48.148;16.326;2023-11-21T03:24:56;7.20;1.00
10566;DHT22;5331;48.148;16.326;2023-11-21T03:27:22;7.10;1.00
10566;DHT22;5331;48.148;16.326;2023-11-21T03:29:48;7.00;1.00
10566;DHT22;5331;48.148;16.326;2023-11-21T03:32:15;7.00;1.00
10566;DHT22;5331;48.148;16.326;2023-11-21T03:34:53;7.00;1.00
10566;DHT22;5331;48.148;16.326;2023-11-21T03:37:21;7.00;1.00
10566;DHT22;5331;48.148;16.326;2023-11-21T03:39:47;6.90;1.00
10566;DHT22;5331;48.148;16.326;2023-11-21T04:00:04;6.70;1.00
10566;DHT22;5331;48.148;16.326;2023-11-21T04:02:33;6.70;1.00
10566;DHT22;5331;48.148;16.326;2023-11-21T04:04:59;6.70;1.00
10566;DHT22;5331;48.148;16.326;2023-11-21T04:07:25;6.70;1.00
10566;DHT22;5331;48.148;16.326;2023-11-21T04:09:52;6.70;1.00
10566;DHT22;5331;48.148;16.326;2023-11-21T04:12:19;6.70;1.00
10566;DHT22;5331;48.148;16.326;2023-11-21T04:14:45;6.60;1.00
10566;DHT22;5331;48.148;16.326;2023-11-21T04:30:13;6.90;1.00
10566;DHT22;5331;48.148;16.326;2023-11-21T04:32:39;6.80;1.00
10566;DHT22;5331;48.148;16.326;2023-11-21T04:35:06;6.90;1.00
10566;DHT22;5331;48.148;16.326;2023-11-21T04:37:34;6.80;1.00
10566;DHT22;5331;48.148;16.326;2023-11-21T04:40:00;6.90;1.00
10566;DHT22;5331;48.148;16.326;2023-11-21T04:42:26;6.80;1.00
10566;DHT22;5331;48.148;16.326;2023-11-21T04:44:52;6.90;1.00
10566;DHT22;5331;48.148;16.326;2023-11-21T05:05:10;6.90;1.00
10566;DHT22;5331;48.148;16.326;2023-11-21T05:07:37;6.90;1.00
10566;DHT22;5331;48.148;16.326;2023-11-21T05:10:04;6.90;1.00
10566;DHT22;5331;48.148;16.326;2023-11-21T05:12:33;6.90;1.00
10566;DHT22;5331;48.148;16.326;2023-11-21T05:15:01;6.80;1.00
10566;DHT22;5331;48.148;16.326;2023-11-21T05:17:28;6.80;1.00
10566;DHT22;5331;48.148;16.326;2023-11-21T05:19:54;6.80;1.00
10566;DHT22;5331;48.148;16.326;2023-11-21T05:36:01;6.90;1.00
10566;DHT22;5331;48.148;16.326;2023-11-21T05:38:27;6.90;1.00
10566;DHT22;5331;48.148;16.326;2023-11-21T05:40:53;6.80;1.00
10566;DHT22;5331;48.148;16.326;2023-11-21T05:43:19;6.80;1.00
10566;DHT22;5331;48.148;16.326;2023-11-21T05:45:46;6.80;1.00
10566;DHT22;5331;48.148;16.326;2023-11-21T05:48:12;6.70;1.00
10566;DHT22;5331;48.148;16.326;2023-11-21T05:50:38;6.70;1.00
10566;DHT22;5331;48.148;16.326;2023-11-21T06:11:33;6.40;1.00
10566;DHT22;5331;48.148;16.326;2023-11-21T06:13:59;6.10;1.00
10566;DHT22;5331;48.148;16.326;2023-11-21T06:16:25;6.00;1.00
10566;DHT22;5331;48.148;16.326;2023-11-21T06:18:51;6.00;1.00
10566;DHT22;5331;48.148;16.326;2023-11-21T06:21:17;6.00;1.00
10566;DHT22;5331;48.148;16.326;2023-11-21T06:23:44;5.90;1.00
10566;DHT22;5331;48.148;16.326;2023-11-21T06:26:10;5.90;1.00
10566;DHT22;5331;48.148;16.326;2023-11-21T06:41:51;6.20;1.00
10566;DHT22;5331;48.148;16.326;2023-11-21T06:44:17;6.10;1.00
10566;DHT22;5331;48.148;16.326;2023-11-21T06:46:45;6.00;1.00
10566;DHT22;5331;48.148;16.326;2023-11-21T06:49:11;6.10;1.00
10566;DHT22;5331;48.148;16.326;2023-11-21T06:51:37;6.10;1.00
10566;DHT22;5331;48.148;16.326;2023-11-21T06:54:03;6.10;1.00
10566;DHT22;5331;48.148;16.326;2023-11-21T06:56:30;6.10;1.00
10566;DHT22;5331;48.148;16.326;2023-11-21T07:17:52;6.90;1.00
10566;DHT22;5331;48.148;16.326;2023-11-21T07:20:19;6.90;1.00
10566;DHT22;5331;48.148;16.326;2023-11-21T07:22:46;6.80;1.00
10566;DHT22;5331;48.148;16.326;2023-11-21T07:25:12;6.90;1.00
10566;DHT22;5331;48.148;16.326;2023-11-21T07:27:38;6.90;1.00
10566;DHT22;5331;48.148;16.326;2023-11-21T07:30:05;7.00;1.00
10566;DHT22;5331;48.148;16.326;2023-11-21T07:32:33;7.00;1.00
10566;DHT22;5331;48.148;16.326;2023-11-21T07:35:00;7.10;1.00
10566;DHT22;5331;48.148;16.326;2023-11-21T07:55:18;8.30;1.00
10566;DHT22;5331;48.148;16.326;2023-11-21T07:57:44;8.60;1.00
10566;DHT22;5331;48.148;16.326;2023-11-21T08:00:11;8.60;1.00
10566;DHT22;5331;48.148;16.326;2023-11-21T08:02:38;8.80;1.00
10566;DHT22;5331;48.148;16.326;2023-11-21T08:05:05;9.00;1.00
10566;DHT22;5331;48.148;16.326;2023-11-21T08:07:33;9.30;1.00
10566;DHT22;5331;48.148;16.326;2023-11-21T08:09:59;9.40;1.00
10566;DHT22;5331;48.148;16.326;2023-11-21T08:29:55;10.10;1.00
10566;DHT22;5331;48.148;16.326;2023-11-21T08:32:22;10.20;1.00
10566;DHT22;5331;48.148;16.326;2023-11-21T08:34:49;10.30;1.00
10566;DHT22;5331;48.148;16.326;2023-11-21T08:37:16;10.50;1.00
10566;DHT22;5331;48.148;16.326;2023-11-21T08:39:43;10.70;1.00
10566;DHT22;5331;48.148;16.326;2023-11-21T08:42:10;10.70;1.00
10566;DHT22;5331;48.148;16.326;2023-11-21T08:44:36;10.60;1.00
10566;DHT22;5331;48.148;16.326;2023-11-21T09:00:15;10.90;1.00
10566;DHT22;5331;48.148;16.326;2023-11-21T09:02:42;10.80;1.00
10566;DHT22;5331;48.148;16.326;2023-11-21T09:05:09;10.70;1.00
10566;DHT22;5331;48.148;16.326;2023-11-21T09:07:35;10.70;1.00
10566;DHT22;5331;48.148;16.326;2023-11-21T09:10:01;10.60;1.00
10566;DHT22;5331;48.148;16.326;2023-11-21T09:12:28;10.70;1.00
10566;DHT22;5331;48.148;16.326;2023-11-21T09:14:54;10.80;1.00
10566;DHT22;5331;48.148;16.326;2023-11-21T09:30:22;11.30;1.00
10566;DHT22;5331;48.148;16.326;2023-11-21T09:32:50;11.10;1.00
10566;DHT22;5331;48.148;16.326;2023-11-21T09:35:16;11.10;1.00
10566;DHT22;5331;48.148;16.326;2023-11-21T09:37:43;11.10;1.00
10566;DHT22;5331;48.148;16.326;2023-11-21T09:40:11;11.10;1.00
10566;DHT22;5331;48.148;16.326;2023-11-21T09:42:41;11.10;1.00
10566;DHT22;5331;48.148;16.326;2023-11-21T09:45:15;11.30;1.00
10566;DHT22;5331;48.148;16.326;2023-11-21T10:03:10;12.60;1.00
10566;DHT22;5331;48.148;16.326;2023-11-21T10:05:37;12.70;1.00
10566;DHT22;5331;48.148;16.326;2023-11-21T10:08:07;13.00;1.00
10566;DHT22;5331;48.148;16.326;2023-11-21T10:10:33;13.00;1.00
10566;DHT22;5331;48.148;16.326;2023-11-21T10:13:02;12.70;1.00
10566;DHT22;5331;48.148;16.326;2023-11-21T10:15:29;12.50;1.00
10566;DHT22;5331;48.148;16.326;2023-11-21T10:17:56;12.30;1.00
10566;DHT22;5331;48.148;16.326;2023-11-21T10:20:23;12.30;1.00
10566;DHT22;5331;48.148;16.326;2023-11-21T10:40:39;12.10;1.00
10566;DHT22;5331;48.148;16.326;2023-11-21T10:43:07;12.60;1.00
10566;DHT22;5331;48.148;16.326;2023-11-21T10:45:34;12.60;1.00
10566;DHT22;5331;48.148;16.326;2023-11-21T10:48:00;13.00;1.00
10566;DHT22;5331;48.148;16.326;2023-11-21T10:50:27;13.00;1.00
10566;DHT22;5331;48.148;16.326;2023-11-21T10:52:53;12.90;1.00
10566;DHT22;5331;48.148;16.326;2023-11-21T10:55:20;12.90;1.00
10566;DHT22;5331;48.148;16.326;2023-11-21T11:13:13;12.90;1.00
10566;DHT22;5331;48.148;16.326;2023-11-21T11:15:42;12.70;1.00
10566;DHT22;5331;48.148;16.326;2023-11-21T11:18:08;12.60;1.00
10566;DHT22;5331;48.148;16.326;2023-11-21T11:20:37;12.50;1.00
10566;DHT22;5331;48.148;16.326;2023-11-21T11:23:25;12.40;1.00
10566;DHT22;5331;48.148;16.326;2023-11-21T11:26:06;12.40;1.00
10566;DHT22;5331;48.148;16.326;2023-11-21T11:28:42;12.40;1.00
10566;DHT22;5331;48.148;16.326;2023-11-21T12:00:46;13.20;1.00
10566;DHT22;5331;48.148;16.326;2023-11-21T12:03:18;13.10;1.00
10566;DHT22;5331;48.148;16.326;2023-11-21T12:05:46;12.80;1.00
10566;DHT22;5331;48.148;16.326;2023-11-21T12:08:16;12.70;1.00
10566;DHT22;5331;48.148;16.326;2023-11-21T12:10:43;12.70;1.00
10566;DHT22;5331;48.148;16.326;2023-11-21T12:13:10;12.90;1.00
10566;DHT22;5331;48.148;16.326;2023-11-21T12:15:39;13.00;1.00
10566;DHT22;5331;48.148;16.326;2023-11-21T12:18:08;12.90;1.00
10566;DHT22;5331;48.148;16.326;2023-11-21T12:20:35;12.80;1.00
10566;DHT22;5331;48.148;16.326;2023-11-21T12:23:04;12.80;1.00
10566;DHT22;5331;48.148;16.326;2023-11-21T12:40:58;12.30;1.00
10566;DHT22;5331;48.148;16.326;2023-11-21T12:43:24;12.20;1.00
10566;DHT22;5331;48.148;16.326;2023-11-21T12:45:50;12.10;1.00
10566;DHT22;5331;48.148;16.326;2023-11-21T12:48:18;12.10;1.00
10566;DHT22;5331;48.148;16.326;2023-11-21T12:50:49;12.00;1.00
10566;DHT22;5331;48.148;16.326;2023-11-21T12:53:18;11.80;1.00
10566;DHT22;5331;48.148;16.326;2023-11-21T12:55:45;11.70;1.00
10566;DHT22;5331;48.148;16.326;2023-11-21T13:12:24;12.00;1.00
10566;DHT22;5331;48.148;16.326;2023-11-21T13:14:50;12.00;1.00
10566;DHT22;5331;48.148;16.326;2023-11-21T13:17:17;11.90;1.00
10566;DHT22;5331;48.148;16.326;2023-11-21T13:19:44;11.60;1.00
10566;DHT22;5331;48.148;16.326;2023-11-21T13:22:10;11.60;1.00
10566;DHT22;5331;48.148;16.326;2023-11-21T13:24:36;11.50;1.00
10566;DHT22;5331;48.148;16.326;2023-11-21T13:27:03;11.40;1.00
10566;DHT22;5331;48.148;16.326;2023-11-21T13:42:33;11.20;1.00
10566;DHT22;5331;48.148;16.326;2023-11-21T13:44:59;11.10;1.00
10566;DHT22;5331;48.148;16.326;2023-11-21T13:47:25;11.00;1.00
10566;DHT22;5331;48.148;16.326;2023-11-21T13:49:55;10.90;1.00
10566;DHT22;5331;48.148;16.326;2023-11-21T13:52:21;10.80;1.00
10566;DHT22;5331;48.148;16.326;2023-11-21T13:54:51;10.80;1.00
10566;DHT22;5331;48.148;16.326;2023-11-21T13:57:18;10.80;1.00
10566;DHT22;5331;48.148;16.326;2023-11-21T14:13:04;10.90;1.00
10566;DHT22;5331;48.148;16.326;2023-11-21T14:15:31;10.90;1.00
10566;DHT22;5331;48.148;16.326;2023-11-21T14:17:58;10.90;1.00
10566;DHT22;5331;48.148;16.326;2023-11-21T14:20:28;10.80;1.00
10566;DHT22;5331;48.148;16.326;2023-11-21T14:22:55;10.80;1.00
10566;DHT22;5331;48.148;16.326;2023-11-21T14:25:22;10.80;1.00
10566;DHT22;5331;48.148;16.326;2023-11-21T14:27:48;10.80;1.00
10566;DHT22;5331;48.148;16.326;2023-11-21T14:48:06;10.50;1.00
10566;DHT22;5331;48.148;16.326;2023-11-21T14:50:41;10.40;1.00
10566;DHT22;5331;48.148;16.326;2023-11-21T14:53:35;10.20;1.00
10566;DHT22;5331;48.148;16.326;2023-11-21T14:56:09;10.20;1.00
10566;DHT22;5331;48.148;16.326;2023-11-21T14:58:36;10.10;1.00
10566;DHT22;5331;48.148;16.326;2023-11-21T15:01:04;10.00;1.00
10566;DHT22;5331;48.148;16.326;2023-11-21T15:03:33;10.00;1.00
10566;DHT22;5331;48.148;16.326;2023-11-21T15:21:48;9.70;1.00
10566;DHT22;5331;48.148;16.326;2023-11-21T15:24:14;9.70;1.00
10566;DHT22;5331;48.148;16.326;2023-11-21T15:26:40;9.60;1.00
10566;DHT22;5331;48.148;16.326;2023-11-21T15:29:06;9.60;1.00
10566;DHT22;5331;48.148;16.326;2023-11-21T15:31:33;9.50;1.00
10566;DHT22;5331;48.148;16.326;2023-11-21T15:34:00;9.40;1.00
10566;DHT22;5331;48.148;16.326;2023-11-21T15:36:26;9.40;1.00
10566;DHT22;5331;48.148;16.326;2023-11-21T15:38:53;9.30;1.00
10566;DHT22;5331;48.148;16.326;2023-11-21T15:59:08;9.10;1.00
10566;DHT22;5331;48.148;16.326;2023-11-21T16:01:35;8.90;1.00
10566;DHT22;5331;48.148;16.326;2023-11-21T16:04:07;8.90;1.00
10566;DHT22;5331;48.148;16.326;2023-11-21T16:06:33;8.80;1.00
10566;DHT22;5331;48.148;16.326;2023-11-21T16:09:05;8.80;1.00
10566;DHT22;5331;48.148;16.326;2023-11-21T16:11:31;8.80;1.00
10566;DHT22;5331;48.148;16.326;2023-11-21T16:13:58;8.80;1.00
10566;DHT22;5331;48.148;16.326;2023-11-21T16:31:47;8.60;1.00
10566;DHT22;5331;48.148;16.326;2023-11-21T16:34:15;8.50;1.00
10566;DHT22;5331;48.148;16.326;2023-11-21T16:36:42;8.40;1.00
10566;DHT22;5331;48.148;16.326;2023-11-21T16:39:08;8.40;1.00
10566;DHT22;5331;48.148;16.326;2023-11-21T16:41:35;8.40;1.00
10566;DHT22;5331;48.148;16.326;2023-11-21T16:44:01;8.40;1.00
10566;DHT22;5331;48.148;16.326;2023-11-21T16:46:27;8.40;1.00
10566;DHT22;5331;48.148;16.326;2023-11-21T17:06:43;8.30;1.00
10566;DHT22;5331;48.148;16.326;2023-11-21T17:09:09;8.20;1.00
10566;DHT22;5331;48.148;16.326;2023-11-21T17:11:35;8.10;1.00
10566;DHT22;5331;48.148;16.326;2023-11-21T17:14:03;8.10;1.00
10566;DHT22;5331;48.148;16.326;2023-11-21T17:16:32;8.10;1.00
10566;DHT22;5331;48.148;16.326;2023-11-21T17:18:58;8.10;1.00
10566;DHT22;5331;48.148;16.326;2023-11-21T17:21:25;8.10;1.00
10566;DHT22;5331;48.148;16.326;2023-11-21T17:37:00;8.20;1.00
10566;DHT22;5331;48.148;16.326;2023-11-21T17:39:29;8.30;1.00
10566;DHT22;5331;48.148;16.326;2023-11-21T17:41:56;8.30;1.00
10566;DHT22;5331;48.148;16.326;2023-11-21T17:44:23;8.30;1.00
10566;DHT22;5331;48.148;16.326;2023-11-21T17:46:49;8.30;1.00
10566;DHT22;5331;48.148;16.326;2023-11-21T17:49:15;8.30;1.00
10566;DHT22;5331;48.148;16.326;2023-11-21T17:51:42;8.40;1.00
10566;DHT22;5331;48.148;16.326;2023-11-21T17:54:08;8.30;1.00
10566;DHT22;5331;48.148;16.326;2023-11-21T18:14:27;8.40;1.00
10566;DHT22;5331;48.148;16.326;2023-11-21T18:16:53;8.60;1.00
10566;DHT22;5331;48.148;16.326;2023-11-21T18:19:19;8.60;1.00
10566;DHT22;5331;48.148;16.326;2023-11-21T18:21:45;8.50;1.00
10566;DHT22;5331;48.148;16.326;2023-11-21T18:24:11;8.60;1.00
10566;DHT22;5331;48.148;16.326;2023-11-21T18:26:37;8.50;1.00
10566;DHT22;5331;48.148;16.326;2023-11-21T18:29:04;8.50;1.00
10566;DHT22;5331;48.148;16.326;2023-11-21T18:45:46;8.50;1.00
10566;DHT22;5331;48.148;16.326;2023-11-21T18:48:12;8.50;1.00
10566;DHT22;5331;48.148;16.326;2023-11-21T18:50:41;8.50;1.00
10566;DHT22;5331;48.148;16.326;2023-11-21T18:53:07;8.40;1.00
10566;DHT22;5331;48.148;16.326;2023-11-21T18:55:33;8.40;1.00
10566;DHT22;5331;48.148;16.326;2023-11-21T18:58:00;8.40;1.00
10566;DHT22;5331;48.148;16.326;2023-11-21T19:00:27;8.30;1.00
10566;DHT22;5331;48.148;16.326;2023-11-21T19:15:57;8.60;1.00
10566;DHT22;5331;48.148;16.326;2023-11-21T19:18:23;8.40;1.00
10566;DHT22;5331;48.148;16.326;2023-11-21T19:20:50;8.30;1.00
10566;DHT22;5331;48.148;16.326;2023-11-21T19:23:16;8.30;1.00
10566;DHT22;5331;48.148;16.326;2023-11-21T19:25:43;8.30;1.00
10566;DHT22;5331;48.148;16.326;2023-11-21T19:28:10;8.20;1.00
10566;DHT22;5331;48.148;16.326;2023-11-21T19:30:36;8.20;1.00
10566;DHT22;5331;48.148;16.326;2023-11-21T19:50:52;7.80;1.00
10566;DHT22;5331;48.148;16.326;2023-11-21T19:53:19;7.80;1.00
10566;DHT22;5331;48.148;16.326;2023-11-21T19:55:45;7.70;1.00
10566;DHT22;5331;48.148;16.326;2023-11-21T19:58:11;7.70;1.00
10566;DHT22;5331;48.148;16.326;2023-11-21T20:00:39;7.60;1.00
10566;DHT22;5331;48.148;16.326;2023-11-21T20:03:06;7.70;1.00
10566;DHT22;5331;48.148;16.326;2023-11-21T20:05:32;7.80;1.00
10566;DHT22;5331;48.148;16.326;2023-11-21T20:07:59;7.80;1.00
10566;DHT22;5331;48.148;16.326;2023-11-21T20:28:03;8.20;1.00
10566;DHT22;5331;48.148;16.326;2023-11-21T20:30:29;8.20;1.00
10566;DHT22;5331;48.148;16.326;2023-11-21T20:32:57;8.20;1.00
10566;DHT22;5331;48.148;16.326;2023-11-21T20:35:24;8.20;1.00
10566;DHT22;5331;48.148;16.326;2023-11-21T20:37:50;8.20;1.00
10566;DHT22;5331;48.148;16.326;2023-11-21T20:40:17;8.20;1.00
10566;DHT22;5331;48.148;16.326;2023-11-21T20:42:43;8.10;1.00
10566;DHT22;5331;48.148;16.326;2023-11-21T20:45:12;8.10;1.00
10566;DHT22;5331;48.148;16.326;2023-11-21T21:03:06;8.30;1.00
10566;DHT22;5331;48.148;16.326;2023-11-21T21:05:32;8.20;1.00
10566;DHT22;5331;48.148;16.326;2023-11-21T21:07:58;8.10;1.00
10566;DHT22;5331;48.148;16.326;2023-11-21T21:10:25;8.00;1.00
10566;DHT22;5331;48.148;16.326;2023-11-21T21:12:51;8.00;1.00
10566;DHT22;5331;48.148;16.326;2023-11-21T21:15:18;7.90;1.00
10566;DHT22;5331;48.148;16.326;2023-11-21T21:17:44;7.90;1.00
10566;DHT22;5331;48.148;16.326;2023-11-21T21:38:06;7.80;1.00
10566;DHT22;5331;48.148;16.326;2023-11-21T21:40:32;7.80;1.00
10566;DHT22;5331;48.148;16.326;2023-11-21T21:42:59;7.80;1.00
10566;DHT22;5331;48.148;16.326;2023-11-21T21:45:27;7.80;1.00
10566;DHT22;5331;48.148;16.326;2023-11-21T21:47:53;7.80;1.00
10566;DHT22;5331;48.148;16.326;2023-11-21T21:50:20;7.70;1.00
10566;DHT22;5331;48.148;16.326;2023-11-21T21:52:46;7.70;1.00
10566;DHT22;5331;48.148;16.326;2023-11-21T22:12:24;8.00;1.00
10566;DHT22;5331;48.148;16.326;2023-11-21T22:14:51;8.00;1.00
10566;DHT22;5331;48.148;16.326;2023-11-21T22:17:18;7.80;1.00
10566;DHT22;5331;48.148;16.326;2023-11-21T22:19:44;7.80;1.00
10566;DHT22;5331;48.148;16.326;2023-11-21T22:22:11;7.80;1.00
10566;DHT22;5331;48.148;16.326;2023-11-21T22:24:38;7.80;1.00
10566;DHT22;5331;48.148;16.326;2023-11-21T22:27:04;7.70;1.00
10566;DHT22;5331;48.148;16.326;2023-11-21T22:47:18;7.70;1.00
10566;DHT22;5331;48.148;16.326;2023-11-21T22:49:47;7.80;1.00
10566;DHT22;5331;48.148;16.326;2023-11-21T22:52:13;7.70;1.00
10566;DHT22;5331;48.148;16.326;2023-11-21T22:54:39;7.70;1.00
10566;DHT22;5331;48.148;16.326;2023-11-21T22:57:05;7.70;1.00
10566;DHT22;5331;48.148;16.326;2023-11-21T22:59:32;7.70;1.00
10566;DHT22;5331;48.148;16.326;2023-11-21T23:01:58;7.80;1.00
10566;DHT22;5331;48.148;16.326;2023-11-21T23:19:53;8.20;1.00
10566;DHT22;5331;48.148;16.326;2023-11-21T23:22:19;8.10;1.00
10566;DHT22;5331;48.148;16.326;2023-11-21T23:24:45;8.00;1.00
10566;DHT22;5331;48.148;16.326;2023-11-21T23:27:14;8.00;1.00
10566;DHT22;5331;48.148;16.326;2023-11-21T23:29:40;8.00;1.00
10566;DHT22;5331;48.148;16.326;2023-11-21T23:32:10;8.00;1.00
10566;DHT22;5331;48.148;16.326;2023-11-21T23:34:37;8.00;1.00
10566;DHT22;5331;48.148;16.326;2023-11-21T23:50:05;8.30;1.00
10566;DHT22;5331;48.148;16.326;2023-11-21T23:52:31;8.30;1.00
10566;DHT22;5331;48.148;16.326;2023-11-21T23:54:58;8.20;1.00
10566;DHT22;5331;48.148;16.326;2023-11-21T23:57:24;8.20;1.00
10566;DHT22;5331;48.148;16.326;2023-11-21T23:59:50;8.20;1.00
